sensor_id;sensor_type;location;lat;lon;timestamp;pressure;altitude;pressure_sealevel;temperature;humidity
31337;BME280;22846;42.654;23.314;2024-03-08T00:00:29;94539.56;;;24.11;58.89
31337;BME280;22846;42.654;23.314;2024-03-08T00:02:54;94544.69;;;24.09;59.06
31337;BME280;22846;42.654;23.314;2024-03-08T00:05:20;94543.16;;;24.08;59.53
31337;BME280;22846;42.654;23.314;2024-03-08T00:07:45;94551.81;;;24.07;59.05
31337;BME280;22846;42.654;23.314;2024-03-08T00:10:12;94544.81;;;24.06;59.30
31337;BME280;22846;42.654;23.314;2024-03-08T00:12:39;94534.56;;;23.97;59.03
31337;BME280;22846;42.654;23.314;2024-03-08T00:15:08;94541.00;;;24.03;58.84
31337;BME280;22846;42.654;23.314;2024-03-08T00:17:34;94551.13;;;24.03;59.14
31337;BME280;22846;42.654;23.314;2024-03-08T00:20:00;94550.38;;;24.02;58.95
31337;BME280;22846;42.654;23.314;2024-03-08T00:22:25;94523.53;;;23.89;59.33
31337;BME280;22846;42.654;23.314;2024-03-08T00:24:50;94538.38;;;24.00;59.18
31337;BME280;22846;42.654;23.314;2024-03-08T00:27:16;94541.97;;;23.97;59.60
31337;BME280;22846;42.654;23.314;2024-03-08T00:29:41;94529.97;;;23.94;59.36
31337;BME280;22846;42.654;23.314;2024-03-08T00:32:07;94530.41;;;23.93;59.20
31337;BME280;22846;42.654;23.314;2024-03-08T00:34:35;94532.69;;;23.94;59.49
31337;BME280;22846;42.654;23.314;2024-03-08T00:37:02;94531.91;;;23.94;59.51
31337;BME280;22846;42.654;23.314;2024-03-08T00:39:27;94538.16;;;23.94;59.35
31337;BME280;22846;42.654;23.314;2024-03-08T00:41:52;94530.06;;;23.91;59.46
31337;BME280;22846;42.654;23.314;2024-03-08T00:44:18;94530.41;;;23.93;59.54
31337;BME280;22846;42.654;23.314;2024-03-08T00:46:43;94520.47;;;23.87;59.41
31337;BME280;22846;42.654;23.314;2024-03-08T00:49:09;94519.91;;;23.92;59.38
31337;BME280;22846;42.654;23.314;2024-03-08T00:51:34;94511.38;;;23.90;59.07
31337;BME280;22846;42.654;23.314;2024-03-08T00:54:00;94514.56;;;23.88;58.96
31337;BME280;22846;42.654;23.314;2024-03-08T00:56:25;94511.84;;;23.88;59.65
31337;BME280;22846;42.654;23.314;2024-03-08T00:58:50;94505.63;;;23.88;59.60
31337;BME280;22846;42.654;23.314;2024-03-08T01:01:18;94509.22;;;23.85;59.12
31337;BME280;22846;42.654;23.314;2024-03-08T01:03:44;94505.28;;;23.86;59.06
31337;BME280;22846;42.654;23.314;2024-03-08T01:06:09;94502.56;;;23.86;59.24
31337;BME280;22846;42.654;23.314;2024-03-08T01:08:34;94498.28;;;23.85;59.41
31337;BME280;22846;42.654;23.314;2024-03-08T01:11:06;94497.31;;;23.79;59.87
31337;BME280;22846;42.654;23.314;2024-03-08T01:13:31;94501.47;;;23.83;59.45
31337;BME280;22846;42.654;23.314;2024-03-08T01:15:56;94503.88;;;23.81;59.19
31337;BME280;22846;42.654;23.314;2024-03-08T01:18:22;94498.41;;;23.81;59.15
31337;BME280;22846;42.654;23.314;2024-03-08T01:20:47;94499.16;;;23.82;59.17
31337;BME280;22846;42.654;23.314;2024-03-08T01:23:13;94497.66;;;23.81;59.44
31337;BME280;22846;42.654;23.314;2024-03-08T01:25:39;94493.41;;;23.80;59.17
31337;BME280;22846;42.654;23.314;2024-03-08T01:28:04;94497.31;;;23.79;59.43
31337;BME280;22846;42.654;23.314;2024-03-08T01:30:30;94486.41;;;23.79;59.34
31337;BME280;22846;42.654;23.314;2024-03-08T01:32:58;94472.72;;;23.66;59.18
31337;BME280;22846;42.654;23.314;2024-03-08T01:35:23;94489.25;;;23.75;59.29
31337;BME280;22846;42.654;23.314;2024-03-08T01:37:49;94490.00;;;23.76;59.27
31337;BME280;22846;42.654;23.314;2024-03-08T01:40:15;94490.00;;;23.76;59.16
31337;BME280;22846;42.654;23.314;2024-03-08T01:42:42;94485.75;;;23.75;59.31
31337;BME280;22846;42.654;23.314;2024-03-08T01:45:07;94485.75;;;23.75;59.06
31337;BME280;22846;42.654;23.314;2024-03-08T01:47:34;94488.88;;;23.73;59.01
31337;BME280;22846;42.654;23.314;2024-03-08T01:50:00;94477.28;;;23.69;59.50
31337;BME280;22846;42.654;23.314;2024-03-08T01:52:28;94482.66;;;23.73;59.31
31337;BME280;22846;42.654;23.314;2024-03-08T01:54:54;94481.22;;;23.68;59.45
31337;BME280;22846;42.654;23.314;2024-03-08T01:57:20;94487.00;;;23.70;59.48
31337;BME280;22846;42.654;23.314;2024-03-08T01:59:46;94478.19;;;23.66;58.89
31337;BME280;22846;42.654;23.314;2024-03-08T02:02:14;94487.78;;;23.71;59.69
31337;BME280;22846;42.654;23.314;2024-03-08T02:04:42;94482.75;;;23.69;59.56
31337;BME280;22846;42.654;23.314;2024-03-08T02:07:07;94476.53;;;23.69;59.29
31337;BME280;22846;42.654;23.314;2024-03-08T02:09:33;94476.66;;;23.65;59.32
31337;BME280;22846;42.654;23.314;2024-03-08T02:11:58;94472.84;;;23.63;59.49
31337;BME280;22846;42.654;23.314;2024-03-08T02:14:23;94477.06;;;23.64;59.44
31337;BME280;22846;42.654;23.314;2024-03-08T02:16:49;94473.47;;;23.67;58.97
31337;BME280;22846;42.654;23.314;2024-03-08T02:19:16;94489.84;;;23.67;59.26
31337;BME280;22846;42.654;23.314;2024-03-08T02:21:41;94486.47;;;23.63;59.35
31337;BME280;22846;42.654;23.314;2024-03-08T02:24:07;94491.03;;;23.66;59.40
31337;BME280;22846;42.654;23.314;2024-03-08T02:26:32;94489.50;;;23.65;59.55
31337;BME280;22846;42.654;23.314;2024-03-08T02:28:58;94486.03;;;23.64;59.08
31337;BME280;22846;42.654;23.314;2024-03-08T02:31:23;94489.22;;;23.63;59.39
31337;BME280;22846;42.654;23.314;2024-03-08T02:33:48;94495.06;;;23.61;59.48
31337;BME280;22846;42.654;23.314;2024-03-08T02:36:14;94493.88;;;23.62;59.04
31337;BME280;22846;42.654;23.314;2024-03-08T02:38:39;94502.06;;;23.62;59.29
31337;BME280;22846;42.654;23.314;2024-03-08T02:41:08;94501.31;;;23.62;59.58
31337;BME280;22846;42.654;23.314;2024-03-08T02:43:34;94506.00;;;23.61;59.08
31337;BME280;22846;42.654;23.314;2024-03-08T02:46:00;94508.38;;;23.59;59.77
31337;BME280;22846;42.654;23.314;2024-03-08T02:48:25;94500.66;;;23.58;59.98
31337;BME280;22846;42.654;23.314;2024-03-08T02:50:51;94499.44;;;23.59;59.57
31337;BME280;22846;42.654;23.314;2024-03-08T02:53:16;94499.44;;;23.59;59.47
31337;BME280;22846;42.654;23.314;2024-03-08T02:55:44;94504.91;;;23.59;59.75
31337;BME280;22846;42.654;23.314;2024-03-08T02:58:09;94508.81;;;23.58;59.51
31337;BME280;22846;42.654;23.314;2024-03-08T03:00:38;94503.81;;;23.56;59.43
31337;BME280;22846;42.654;23.314;2024-03-08T03:03:04;94503.03;;;23.56;59.53
31337;BME280;22846;42.654;23.314;2024-03-08T03:05:30;94501.53;;;23.55;59.59
31337;BME280;22846;42.654;23.314;2024-03-08T03:07:55;94503.47;;;23.54;59.62
31337;BME280;22846;42.654;23.314;2024-03-08T03:10:21;94497.38;;;23.50;59.24
31337;BME280;22846;42.654;23.314;2024-03-08T03:12:47;94496.59;;;23.50;59.31
31337;BME280;22846;42.654;23.314;2024-03-08T03:15:16;94513.63;;;23.54;59.67
31337;BME280;22846;42.654;23.314;2024-03-08T03:17:48;94494.41;;;23.45;59.56
31337;BME280;22846;42.654;23.314;2024-03-08T03:20:16;94513.63;;;23.54;59.68
31337;BME280;22846;42.654;23.314;2024-03-08T03:22:48;94514.38;;;23.54;59.32
31337;BME280;22846;42.654;23.314;2024-03-08T03:25:20;94515.59;;;23.53;59.14
31337;BME280;22846;42.654;23.314;2024-03-08T03:27:54;94506.53;;;23.44;59.33
31337;BME280;22846;42.654;23.314;2024-03-08T03:30:25;94524.66;;;23.50;59.27
31337;BME280;22846;42.654;23.314;2024-03-08T03:32:58;94517.22;;;23.51;59.00
31337;BME280;22846;42.654;23.314;2024-03-08T03:35:28;94526.94;;;23.52;59.50
31337;BME280;22846;42.654;23.314;2024-03-08T03:37:54;94529.31;;;23.50;59.17
31337;BME280;22846;42.654;23.314;2024-03-08T03:40:35;94527.78;;;23.49;59.52
31337;BME280;22846;42.654;23.314;2024-03-08T03:43:02;94525.84;;;23.49;59.56
31337;BME280;22846;42.654;23.314;2024-03-08T03:45:28;94536.31;;;23.51;59.21
31337;BME280;22846;42.654;23.314;2024-03-08T03:47:53;94538.72;;;23.49;58.97
31337;BME280;22846;42.654;23.314;2024-03-08T03:50:19;94533.25;;;23.49;59.84
31337;BME280;22846;42.654;23.314;2024-03-08T03:52:48;94537.16;;;23.48;59.21
31337;BME280;22846;42.654;23.314;2024-03-08T03:55:14;94536.41;;;23.47;59.18
31337;BME280;22846;42.654;23.314;2024-03-08T03:57:40;94538.38;;;23.47;59.31
31337;BME280;22846;42.654;23.314;2024-03-08T04:00:06;94538.38;;;23.47;59.19
31337;BME280;22846;42.654;23.314;2024-03-08T04:02:38;94535.63;;;23.47;59.16
31337;BME280;22846;42.654;23.314;2024-03-08T04:05:05;94536.09;;;23.45;59.43
31337;BME280;22846;42.654;23.314;2024-03-08T04:07:31;94542.72;;;23.44;59.55
31337;BME280;22846;42.654;23.314;2024-03-08T04:09:57;94542.31;;;23.46;59.31
31337;BME280;22846;42.654;23.314;2024-03-08T04:12:22;94549.72;;;23.45;59.53
31337;BME280;22846;42.654;23.314;2024-03-08T04:14:48;94555.63;;;23.44;59.04
31337;BME280;22846;42.654;23.314;2024-03-08T04:17:13;94547.53;;;23.40;59.08
31337;BME280;22846;42.654;23.314;2024-03-08T04:19:39;94556.38;;;23.44;59.19
31337;BME280;22846;42.654;23.314;2024-03-08T04:22:05;94547.53;;;23.40;59.26
31337;BME280;22846;42.654;23.314;2024-03-08T04:24:32;94558.34;;;23.44;59.49
31337;BME280;22846;42.654;23.314;2024-03-08T04:26:58;94563.47;;;23.42;59.29
31337;BME280;22846;42.654;23.314;2024-03-08T04:29:24;94562.25;;;23.43;59.63
31337;BME280;22846;42.654;23.314;2024-03-08T04:31:49;94563.13;;;23.40;59.64
31337;BME280;22846;42.654;23.314;2024-03-08T04:34:15;94571.63;;;23.42;59.42
31337;BME280;22846;42.654;23.314;2024-03-08T04:36:40;94567.91;;;23.36;59.21
31337;BME280;22846;42.654;23.314;2024-03-08T04:39:05;94577.19;;;23.38;59.52
31337;BME280;22846;42.654;23.314;2024-03-08T04:41:31;94554.16;;;23.27;59.13
31337;BME280;22846;42.654;23.314;2024-03-08T04:43:59;94582.19;;;23.40;58.79
31337;BME280;22846;42.654;23.314;2024-03-08T04:46:24;94569.34;;;23.40;59.20
31337;BME280;22846;42.654;23.314;2024-03-08T04:48:50;94566.66;;;23.53;57.99
31337;BME280;22846;42.654;23.314;2024-03-08T04:51:15;94581.97;;;23.63;58.13
31337;BME280;22846;42.654;23.314;2024-03-08T04:53:41;94582.16;;;23.68;58.76
31337;BME280;22846;42.654;23.314;2024-03-08T04:56:07;94580.97;;;23.69;58.56
31337;BME280;22846;42.654;23.314;2024-03-08T04:58:35;94591.88;;;23.69;58.49
31337;BME280;22846;42.654;23.314;2024-03-08T05:01:01;94580.13;;;23.72;57.85
31337;BME280;22846;42.654;23.314;2024-03-08T05:03:27;94588.91;;;23.80;57.40
31337;BME280;22846;42.654;23.314;2024-03-08T05:05:52;94592.84;;;23.91;57.63
31337;BME280;22846;42.654;23.314;2024-03-08T05:08:18;94587.06;;;24.01;57.34
31337;BME280;22846;42.654;23.314;2024-03-08T05:10:44;94577.81;;;24.11;57.62
31337;BME280;22846;42.654;23.314;2024-03-08T05:13:10;94593.84;;;24.34;56.82
31337;BME280;22846;42.654;23.314;2024-03-08T05:15:35;94584.16;;;24.46;56.99
31337;BME280;22846;42.654;23.314;2024-03-08T05:18:01;94592.03;;;24.56;56.66
31337;BME280;22846;42.654;23.314;2024-03-08T05:20:27;94592.44;;;24.67;56.43
31337;BME280;22846;42.654;23.314;2024-03-08T05:22:52;94599.75;;;24.70;56.76
31337;BME280;22846;42.654;23.314;2024-03-08T05:25:18;94611.56;;;24.79;56.30
31337;BME280;22846;42.654;23.314;2024-03-08T05:27:43;94600.19;;;24.81;56.09
31337;BME280;22846;42.654;23.314;2024-03-08T05:30:09;94608.59;;;24.86;55.49
31337;BME280;22846;42.654;23.314;2024-03-08T05:32:41;94595.34;;;24.85;55.60
31337;BME280;22846;42.654;23.314;2024-03-08T05:35:12;94620.72;;;24.98;55.76
31337;BME280;22846;42.654;23.314;2024-03-08T05:37:41;94613.47;;;25.04;55.51
31337;BME280;22846;42.654;23.314;2024-03-08T05:40:10;94625.19;;;25.04;54.43
31337;BME280;22846;42.654;23.314;2024-03-08T05:42:35;94623.53;;;25.07;54.18
31337;BME280;22846;42.654;23.314;2024-03-08T05:45:04;94616.56;;;24.93;54.79
31337;BME280;22846;42.654;23.314;2024-03-08T05:47:31;94631.31;;;24.96;55.28
31337;BME280;22846;42.654;23.314;2024-03-08T05:49:58;94634.63;;;24.91;55.79
31337;BME280;22846;42.654;23.314;2024-03-08T05:52:24;94637.59;;;24.84;55.68
31337;BME280;22846;42.654;23.314;2024-03-08T05:54:51;94644.78;;;24.78;56.00
31337;BME280;22846;42.654;23.314;2024-03-08T05:57:16;94645.00;;;24.71;55.76
31337;BME280;22846;42.654;23.314;2024-03-08T05:59:42;94641.09;;;24.60;55.86
31337;BME280;22846;42.654;23.314;2024-03-08T06:02:07;94647.31;;;24.60;56.41
31337;BME280;22846;42.654;23.314;2024-03-08T06:04:33;94651.81;;;24.54;56.46
31337;BME280;22846;42.654;23.314;2024-03-08T06:06:58;94646.22;;;24.45;56.41
31337;BME280;22846;42.654;23.314;2024-03-08T06:09:24;94650.34;;;24.37;56.45
31337;BME280;22846;42.654;23.314;2024-03-08T06:11:51;94659.28;;;24.38;56.65
31337;BME280;22846;42.654;23.314;2024-03-08T06:14:18;94666.06;;;24.33;56.10
31337;BME280;22846;42.654;23.314;2024-03-08T06:16:44;94662.69;;;24.29;56.50
31337;BME280;22846;42.654;23.314;2024-03-08T06:19:10;94668.59;;;24.28;56.47
31337;BME280;22846;42.654;23.314;2024-03-08T06:21:35;94667.69;;;24.18;56.55
31337;BME280;22846;42.654;23.314;2024-03-08T06:24:02;94669.97;;;24.20;56.33
31337;BME280;22846;42.654;23.314;2024-03-08T06:26:28;94677.06;;;24.17;56.68
31337;BME280;22846;42.654;23.314;2024-03-08T06:28:54;94659.91;;;24.04;57.31
31337;BME280;22846;42.654;23.314;2024-03-08T06:31:19;94664.94;;;24.06;56.31
31337;BME280;22846;42.654;23.314;2024-03-08T06:33:45;94673.91;;;24.06;55.81
31337;BME280;22846;42.654;23.314;2024-03-08T06:36:16;94655.28;;;23.89;56.74
31337;BME280;22846;42.654;23.314;2024-03-08T06:38:48;94676.81;;;23.99;57.44
31337;BME280;22846;42.654;23.314;2024-03-08T06:41:14;94684.59;;;24.01;56.64
31337;BME280;22846;42.654;23.314;2024-03-08T06:43:47;94689.38;;;23.97;57.12
31337;BME280;22846;42.654;23.314;2024-03-08T06:46:14;94684.44;;;23.92;56.51
31337;BME280;22846;42.654;23.314;2024-03-08T06:48:40;94680.59;;;23.90;56.35
31337;BME280;22846;42.654;23.314;2024-03-08T06:51:05;94683.34;;;23.90;56.37
31337;BME280;22846;42.654;23.314;2024-03-08T06:53:31;94681.25;;;23.81;56.51
31337;BME280;22846;42.654;23.314;2024-03-08T06:55:57;94681.81;;;23.89;56.25
31337;BME280;22846;42.654;23.314;2024-03-08T06:58:23;94691.63;;;23.86;56.71
31337;BME280;22846;42.654;23.314;2024-03-08T07:00:48;94692.81;;;23.85;56.73
31337;BME280;22846;42.654;23.314;2024-03-08T07:03:17;94695.97;;;23.84;56.77
31337;BME280;22846;42.654;23.314;2024-03-08T07:05:43;94693.69;;;23.82;56.42
31337;BME280;22846;42.654;23.314;2024-03-08T07:08:09;94689.00;;;23.83;56.86
31337;BME280;22846;42.654;23.314;2024-03-08T07:10:34;94689.09;;;23.79;56.48
31337;BME280;22846;42.654;23.314;2024-03-08T07:13:02;94699.16;;;23.82;55.74
31337;BME280;22846;42.654;23.314;2024-03-08T07:15:28;94698.06;;;23.80;56.75
31337;BME280;22846;42.654;23.314;2024-03-08T07:17:54;94696.53;;;23.79;56.70
31337;BME280;22846;42.654;23.314;2024-03-08T07:20:20;94702.75;;;23.79;56.89
31337;BME280;22846;42.654;23.314;2024-03-08T07:22:55;94709.06;;;23.76;56.79
31337;BME280;22846;42.654;23.314;2024-03-08T07:25:25;94708.31;;;23.60;43.79
31337;BME280;22846;42.654;23.314;2024-03-08T07:27:55;94700.59;;;23.26;39.12
31337;BME280;22846;42.654;23.314;2024-03-08T07:30:22;94700.34;;;23.05;45.30
31337;BME280;22846;42.654;23.314;2024-03-08T07:33:06;94707.06;;;23.01;48.19
31337;BME280;22846;42.654;23.314;2024-03-08T07:35:33;94700.41;;;23.02;50.78
31337;BME280;22846;42.654;23.314;2024-03-08T07:37:58;94710.50;;;23.05;51.27
31337;BME280;22846;42.654;23.314;2024-03-08T07:40:27;94713.16;;;23.08;51.15
31337;BME280;22846;42.654;23.314;2024-03-08T07:42:53;94711.06;;;23.12;52.17
31337;BME280;22846;42.654;23.314;2024-03-08T07:45:18;94712.13;;;23.18;50.12
31337;BME280;22846;42.654;23.314;2024-03-08T07:47:44;94704.13;;;23.11;50.91
31337;BME280;22846;42.654;23.314;2024-03-08T07:50:09;94703.25;;;23.14;50.55
31337;BME280;22846;42.654;23.314;2024-03-08T07:52:35;94711.69;;;23.19;51.13
31337;BME280;22846;42.654;23.314;2024-03-08T07:55:03;94717.03;;;23.23;52.44
31337;BME280;22846;42.654;23.314;2024-03-08T07:57:32;94713.13;;;23.24;51.77
31337;BME280;22846;42.654;23.314;2024-03-08T07:59:58;94717.31;;;23.28;52.13
31337;BME280;22846;42.654;23.314;2024-03-08T08:02:43;94714.13;;;23.30;51.91
31337;BME280;22846;42.654;23.314;2024-03-08T08:05:10;94719.69;;;23.26;50.19
31337;BME280;22846;42.654;23.314;2024-03-08T08:07:36;94716.09;;;23.29;52.01
31337;BME280;22846;42.654;23.314;2024-03-08T08:10:01;94706.84;;;23.27;52.97
31337;BME280;22846;42.654;23.314;2024-03-08T08:12:28;94714.47;;;23.32;53.13
31337;BME280;22846;42.654;23.314;2024-03-08T08:15:15;94718.00;;;23.32;53.29
31337;BME280;22846;42.654;23.314;2024-03-08T08:17:45;94712.84;;;23.34;53.63
31337;BME280;22846;42.654;23.314;2024-03-08T08:23:34;94710.91;;;23.35;53.16
31337;BME280;22846;42.654;23.314;2024-03-08T08:26:01;94705.81;;;23.37;53.29
31337;BME280;22846;42.654;23.314;2024-03-08T08:28:47;94708.84;;;23.39;53.78
31337;BME280;22846;42.654;23.314;2024-03-08T08:31:34;94711.91;;;23.41;53.71
31337;BME280;22846;42.654;23.314;2024-03-08T08:54:12;94694.38;;;23.42;53.43
31337;BME280;22846;42.654;23.314;2024-03-08T08:56:57;94696.34;;;23.41;53.70
31337;BME280;22846;42.654;23.314;2024-03-08T09:02:57;94702.78;;;23.47;52.62
31337;BME280;22846;42.654;23.314;2024-03-08T09:05:27;94698.88;;;23.48;52.47
31337;BME280;22846;42.654;23.314;2024-03-08T09:08:23;94705.44;;;23.51;52.99
31337;BME280;22846;42.654;23.314;2024-03-08T09:11:07;94699.53;;;23.52;53.02
31337;BME280;22846;42.654;23.314;2024-03-08T09:13:33;94699.22;;;23.50;53.55
31337;BME280;22846;42.654;23.314;2024-03-08T09:16:16;94694.50;;;23.51;52.50
31337;BME280;22846;42.654;23.314;2024-03-08T09:29:15;94696.41;;;23.54;53.28
31337;BME280;22846;42.654;23.314;2024-03-08T09:32:07;94696.41;;;23.54;53.02
31337;BME280;22846;42.654;23.314;2024-03-08T09:34:35;94699.88;;;23.54;54.24
31337;BME280;22846;42.654;23.314;2024-03-08T09:37:01;94692.78;;;23.57;54.55
31337;BME280;22846;42.654;23.314;2024-03-08T09:39:29;94688.56;;;23.40;38.53
31337;BME280;22846;42.654;23.314;2024-03-08T09:41:55;94661.34;;;22.92;35.88
31337;BME280;22846;42.654;23.314;2024-03-08T09:44:29;94691.31;;;22.92;41.42
31337;BME280;22846;42.654;23.314;2024-03-08T09:47:00;94691.81;;;22.87;46.85
31337;BME280;22846;42.654;23.314;2024-03-08T09:49:29;94677.50;;;22.83;48.69
31337;BME280;22846;42.654;23.314;2024-03-08T09:51:55;94693.16;;;22.95;48.94
31337;BME280;22846;42.654;23.314;2024-03-08T09:54:21;94681.06;;;22.96;50.08
31337;BME280;22846;42.654;23.314;2024-03-08T09:56:48;94689.81;;;23.07;50.19
31337;BME280;22846;42.654;23.314;2024-03-08T09:59:16;94691.06;;;23.18;50.76
31337;BME280;22846;42.654;23.314;2024-03-08T10:01:48;94689.38;;;23.24;49.85
31337;BME280;22846;42.654;23.314;2024-03-08T10:04:14;94686.56;;;23.28;50.47
31337;BME280;22846;42.654;23.314;2024-03-08T10:06:40;94685.69;;;23.31;50.89
31337;BME280;22846;42.654;23.314;2024-03-08T10:09:06;94689.75;;;23.39;50.84
31337;BME280;22846;42.654;23.314;2024-03-08T10:11:33;94657.06;;;23.23;52.15
31337;BME280;22846;42.654;23.314;2024-03-08T10:14:00;94684.66;;;23.41;51.42
31337;BME280;22846;42.654;23.314;2024-03-08T10:16:29;94685.34;;;23.45;52.08
31337;BME280;22846;42.654;23.314;2024-03-08T10:18:58;94694.19;;;23.49;51.80
31337;BME280;22846;42.654;23.314;2024-03-08T10:21:23;94685.13;;;23.52;51.36
31337;BME280;22846;42.654;23.314;2024-03-08T10:23:51;94682.84;;;23.50;52.08
31337;BME280;22846;42.654;23.314;2024-03-08T10:26:20;94678.69;;;23.46;51.57
31337;BME280;22846;42.654;23.314;2024-03-08T10:28:51;94689.81;;;23.51;50.76
31337;BME280;22846;42.654;23.314;2024-03-08T10:31:18;94692.13;;;23.53;51.03
31337;BME280;22846;42.654;23.314;2024-03-08T10:33:45;94692.47;;;23.55;51.47
31337;BME280;22846;42.654;23.314;2024-03-08T10:36:12;94683.59;;;23.51;51.56
31337;BME280;22846;42.654;23.314;2024-03-08T10:38:39;94681.97;;;23.53;50.59
31337;BME280;22846;42.654;23.314;2024-03-08T10:41:09;94676.88;;;23.55;50.55
31337;BME280;22846;42.654;23.314;2024-03-08T10:49:26;94676.00;;;23.58;51.88
31337;BME280;22846;42.654;23.314;2024-03-08T10:51:54;94665.50;;;23.57;51.51
31337;BME280;22846;42.654;23.314;2024-03-08T10:54:21;94662.13;;;23.53;51.04
31337;BME280;22846;42.654;23.314;2024-03-08T10:56:48;94671.31;;;23.59;50.84
31337;BME280;22846;42.654;23.314;2024-03-08T10:59:14;94668.13;;;23.60;52.22
31337;BME280;22846;42.654;23.314;2024-03-08T11:01:40;94660.75;;;23.61;51.96
31337;BME280;22846;42.654;23.314;2024-03-08T11:04:05;94654.19;;;23.58;52.43
31337;BME280;22846;42.654;23.314;2024-03-08T11:09:02;94653.75;;;23.60;52.07
31337;BME280;22846;42.654;23.314;2024-03-08T11:11:33;94638.56;;;23.59;51.88
31337;BME280;22846;42.654;23.314;2024-03-08T11:14:00;94637.28;;;23.63;52.31
31337;BME280;22846;42.654;23.314;2024-03-08T11:19:00;94619.91;;;23.57;52.79
31337;BME280;22846;42.654;23.314;2024-03-08T11:21:30;94638.38;;;23.66;52.87
31337;BME280;22846;42.654;23.314;2024-03-08T11:24:07;94636.97;;;23.74;53.03
31337;BME280;22846;42.654;23.314;2024-03-08T11:26:33;94637.78;;;23.74;52.97
31337;BME280;22846;42.654;23.314;2024-03-08T11:34:32;94619.44;;;23.75;52.38
31337;BME280;22846;42.654;23.314;2024-03-08T11:36:58;94627.97;;;23.77;52.82
31337;BME280;22846;42.654;23.314;2024-03-08T11:39:24;94604.31;;;23.58;52.68
31337;BME280;22846;42.654;23.314;2024-03-08T11:41:50;94621.78;;;23.73;52.81
31337;BME280;22846;42.654;23.314;2024-03-08T11:44:16;94617.22;;;23.70;52.74
31337;BME280;22846;42.654;23.314;2024-03-08T11:46:43;94632.66;;;23.76;52.95
31337;BME280;22846;42.654;23.314;2024-03-08T11:49:15;94627.22;;;23.76;53.08
31337;BME280;22846;42.654;23.314;2024-03-08T11:51:41;94610.75;;;23.64;53.54
31337;BME280;22846;42.654;23.314;2024-03-08T11:54:12;94627.63;;;23.75;53.36
31337;BME280;22846;42.654;23.314;2024-03-08T11:56:40;94626.88;;;23.74;53.62
31337;BME280;22846;42.654;23.314;2024-03-08T11:59:11;94619.16;;;23.69;52.95
31337;BME280;22846;42.654;23.314;2024-03-08T12:01:38;94615.69;;;23.69;53.84
31337;BME280;22846;42.654;23.314;2024-03-08T12:04:03;94615.25;;;23.70;53.79
31337;BME280;22846;42.654;23.314;2024-03-08T12:06:39;94618.75;;;23.71;53.28
31337;BME280;22846;42.654;23.314;2024-03-08T12:09:08;94610.69;;;23.67;53.05
31337;BME280;22846;42.654;23.314;2024-03-08T12:11:34;94619.16;;;23.69;53.19
31337;BME280;22846;42.654;23.314;2024-03-08T12:14:01;94610.22;;;23.69;51.94
31337;BME280;22846;42.654;23.314;2024-03-08T12:16:27;94614.84;;;23.72;52.13
31337;BME280;22846;42.654;23.314;2024-03-08T12:18:53;94621.78;;;23.73;52.60
31337;BME280;22846;42.654;23.314;2024-03-08T12:21:21;94609.38;;;23.72;52.67
31337;BME280;22846;42.654;23.314;2024-03-08T12:24:05;94599.97;;;23.73;52.80
31337;BME280;22846;42.654;23.314;2024-03-08T12:26:35;94603.41;;;23.77;41.98
31337;BME280;22846;42.654;23.314;2024-03-08T12:29:19;94604.00;;;23.68;35.26
31337;BME280;22846;42.654;23.314;2024-03-08T12:31:51;94607.84;;;23.42;36.56
31337;BME280;22846;42.654;23.314;2024-03-08T12:34:17;94602.69;;;23.32;38.31
31337;BME280;22846;42.654;23.314;2024-03-08T12:36:47;94598.88;;;23.29;36.79
31337;BME280;22846;42.654;23.314;2024-03-08T12:39:18;94601.44;;;23.20;33.59
31337;BME280;22846;42.654;23.314;2024-03-08T12:41:48;94600.94;;;22.94;36.69
31337;BME280;22846;42.654;23.314;2024-03-08T12:44:14;94595.94;;;22.92;40.29
31337;BME280;22846;42.654;23.314;2024-03-08T12:46:40;94597.13;;;22.91;43.16
31337;BME280;22846;42.654;23.314;2024-03-08T12:52:29;94595.16;;;23.08;44.64
31337;BME280;22846;42.654;23.314;2024-03-08T12:54:56;94579.56;;;23.08;45.38
31337;BME280;22846;42.654;23.314;2024-03-08T12:57:33;94585.84;;;23.21;45.25
31337;BME280;22846;42.654;23.314;2024-03-08T13:00:02;94593.84;;;23.28;46.38
31337;BME280;22846;42.654;23.314;2024-03-08T13:02:28;94590.47;;;23.36;46.90
31337;BME280;22846;42.654;23.314;2024-03-08T13:04:55;94594.22;;;23.42;47.00
31337;BME280;22846;42.654;23.314;2024-03-08T13:07:23;94590.41;;;23.52;46.90
31337;BME280;22846;42.654;23.314;2024-03-08T13:09:56;94582.47;;;23.58;47.22
31337;BME280;22846;42.654;23.314;2024-03-08T13:12:24;94587.72;;;23.65;47.77
31337;BME280;22846;42.654;23.314;2024-03-08T13:14:53;94586.00;;;23.71;47.91
31337;BME280;22846;42.654;23.314;2024-03-08T13:17:23;94589.75;;;23.77;48.64
31337;BME280;22846;42.654;23.314;2024-03-08T13:19:52;94588.47;;;23.81;47.53
31337;BME280;22846;42.654;23.314;2024-03-08T13:22:22;94584.53;;;23.82;47.55
31337;BME280;22846;42.654;23.314;2024-03-08T13:24:49;94577.53;;;23.81;48.36
31337;BME280;22846;42.654;23.314;2024-03-08T13:27:15;94589.09;;;23.85;47.72
31337;BME280;22846;42.654;23.314;2024-03-08T13:29:49;94588.69;;;23.87;47.85
31337;BME280;22846;42.654;23.314;2024-03-08T13:32:16;94570.41;;;23.71;49.07
31337;BME280;22846;42.654;23.314;2024-03-08T13:34:59;94589.22;;;23.82;49.52
31337;BME280;22846;42.654;23.314;2024-03-08T13:37:49;94580.50;;;23.87;50.20
31337;BME280;22846;42.654;23.314;2024-03-08T13:40:14;94584.31;;;23.89;50.32
31337;BME280;22846;42.654;23.314;2024-03-08T13:42:41;94595.13;;;23.92;50.33
31337;BME280;22846;42.654;23.314;2024-03-08T13:45:08;94583.88;;;23.91;50.19
31337;BME280;22846;42.654;23.314;2024-03-08T13:47:40;94589.56;;;23.96;50.70
31337;BME280;22846;42.654;23.314;2024-03-08T13:50:09;94587.28;;;23.94;50.52